Cumberland, Iowa
Current Conditions -  °F | °C
As of 10:35 PM on Saturday 22 Nov 2014 (Local Time) from KAIO Reporting Station
Haze Haze  
Wind Chill: 54°   Ceiling: 700
Heat Index: 54°   Visibility: 3mi
Dew Point: 52°   Wind: 14mph
Humidity: 94%   Direction: 190°S
Pressure: 29.62"   Gusts: 20mph
Location:  41.27°N, 94.87°W
Report Text: KAIO 230435Z AUTO 19012G17KT 3SM BR OVC007 12/11 A2962 RMK AO2
Loading
Personal Weather Stations






























Interactive Weather Map New forecast layout! Learn more

10-Day Weather Forecast

Advertisements
Track Severe Weather on mobile